createdAt,value
2018-06-30T01:01:02.638Z,10.40
2018-06-30T04:16:07.804Z,10.37
2018-06-30T04:18:42.020Z,13.70
2018-06-30T04:21:14.947Z,12.50
2018-06-30T04:33:53.184Z,15.60
2018-06-30T04:49:00.938Z,16.10
2018-06-30T04:51:33.539Z,15.40
2018-06-30T04:54:06.336Z,13.47
2018-06-30T04:56:38.859Z,14.40
2018-06-30T04:59:13.457Z,14.63
2018-06-30T05:01:47.978Z,12.87
2018-06-30T05:09:24.268Z,12.77
2018-06-30T05:11:56.826Z,11.17
2018-06-30T05:14:29.465Z,10.57
2018-06-30T05:17:02.060Z,8.87
2018-06-30T05:19:34.741Z,11.07
2018-06-30T05:22:07.604Z,10.73
2018-06-30T05:24:40.135Z,10.20
2018-06-30T05:27:12.842Z,9.50
2018-06-30T05:29:45.411Z,10.20
2018-06-30T05:32:18.030Z,9.90
2018-06-30T05:34:50.631Z,10.33
2018-06-30T05:37:23.174Z,9.37
2018-06-30T05:39:55.835Z,11.00
2018-06-30T05:42:28.316Z,9.67
2018-06-30T05:45:00.946Z,10.87
2018-06-30T05:47:33.508Z,11.20
2018-06-30T05:50:06.181Z,9.70
2018-06-30T05:52:38.868Z,9.40
2018-06-30T05:55:12.239Z,9.33
2018-06-30T05:57:45.299Z,9.20
2018-06-30T06:00:17.821Z,10.03
2018-06-30T06:02:50.577Z,9.43
2018-06-30T06:05:23.176Z,8.90
2018-06-30T06:07:55.799Z,9.20
2018-06-30T06:10:28.393Z,10.73
2018-06-30T06:13:00.898Z,9.00
2018-06-30T06:15:33.506Z,9.67
2018-06-30T06:18:06.066Z,8.83
2018-06-30T06:20:39.012Z,9.17
2018-06-30T06:23:11.638Z,10.67
2018-06-30T06:25:45.295Z,9.97
2018-06-30T06:28:18.104Z,9.13
2018-06-30T06:30:50.718Z,11.13
2018-06-30T06:33:23.239Z,9.27
2018-06-30T06:35:55.722Z,11.40
2018-06-30T06:38:28.377Z,10.83
2018-06-30T06:41:00.990Z,8.00
2018-06-30T06:43:33.485Z,10.07
2018-06-30T06:46:06.140Z,9.87
2018-06-30T06:48:38.842Z,9.43
2018-06-30T06:51:11.296Z,8.33
2018-06-30T06:53:44.019Z,8.57
2018-06-30T06:56:15.667Z,8.37
2018-06-30T06:58:48.566Z,7.70
2018-06-30T07:01:21.084Z,7.60
2018-06-30T07:03:53.714Z,8.43
2018-06-30T07:06:26.268Z,8.33
2018-06-30T07:08:58.972Z,7.73
2018-06-30T07:11:32.677Z,8.60
2018-06-30T07:14:05.424Z,7.47
2018-06-30T07:16:38.215Z,7.57
2018-06-30T07:22:41.989Z,8.67
2018-06-30T07:25:14.289Z,7.67
2018-06-30T07:27:46.543Z,8.80
2018-06-30T07:30:19.242Z,7.90
2018-06-30T07:32:51.798Z,8.47
2018-06-30T07:35:24.630Z,9.13
2018-06-30T07:37:56.906Z,8.93
2018-06-30T07:40:27.955Z,9.43
2018-06-30T07:43:00.382Z,8.90
2018-06-30T07:45:32.621Z,8.77
2018-06-30T07:48:05.287Z,7.00
2018-06-30T07:50:37.630Z,7.57
2018-06-30T07:53:10.081Z,9.20
2018-06-30T07:55:42.401Z,8.83
2018-06-30T07:58:14.860Z,9.53
2018-06-30T08:00:47.012Z,10.50
2018-06-30T08:03:20.385Z,10.27
2018-06-30T08:05:53.065Z,9.80
2018-06-30T08:11:57.057Z,10.47
2018-06-30T08:14:29.523Z,9.00
2018-06-30T08:17:02.013Z,11.13
2018-06-30T08:19:34.478Z,11.13
2018-06-30T08:22:07.133Z,11.17
2018-06-30T08:24:38.301Z,9.77
2018-06-30T08:27:10.874Z,9.93
2018-06-30T08:29:43.521Z,9.07
2018-06-30T08:32:16.153Z,9.67
2018-06-30T08:34:48.789Z,9.53
2018-06-30T08:37:21.356Z,10.23
2018-06-30T08:39:53.900Z,9.23
2018-06-30T08:42:26.697Z,9.83
2018-06-30T08:44:59.063Z,9.80
2018-06-30T08:47:31.517Z,8.80
2018-06-30T08:50:04.115Z,9.97
2018-06-30T08:52:36.427Z,9.40
2018-06-30T08:55:08.950Z,9.77
2018-06-30T08:57:41.372Z,11.17
2018-06-30T09:00:14.088Z,9.63
2018-06-30T09:05:54.289Z,9.60
2018-06-30T09:08:26.845Z,8.90
2018-06-30T09:10:59.329Z,8.60
2018-06-30T09:13:31.701Z,8.23
2018-06-30T09:16:04.060Z,8.77
2018-06-30T09:18:36.659Z,7.60
2018-06-30T09:21:09.259Z,8.53
2018-06-30T09:27:32.494Z,8.87
2018-06-30T09:30:04.792Z,8.90
2018-06-30T09:32:36.989Z,10.40
2018-06-30T09:38:31.580Z,8.43
2018-06-30T09:41:05.846Z,8.03
2018-06-30T09:43:39.134Z,8.97
2018-06-30T09:46:12.072Z,9.77
2018-06-30T09:48:44.955Z,7.87
2018-06-30T09:51:17.656Z,8.57
2018-06-30T09:53:50.440Z,9.10
2018-06-30T09:56:23.158Z,8.23
2018-06-30T09:58:55.933Z,8.50
2018-06-30T10:01:28.885Z,8.80
2018-06-30T10:04:02.369Z,10.33
2018-06-30T10:06:35.614Z,9.20
2018-06-30T10:12:38.875Z,9.47
2018-06-30T10:15:11.810Z,10.67
2018-06-30T10:17:44.344Z,10.87
2018-06-30T10:23:33.521Z,11.47
2018-06-30T10:26:05.572Z,11.23
2018-06-30T10:28:37.748Z,11.53
2018-06-30T10:31:09.917Z,14.43
2018-06-30T10:33:42.263Z,15.03
2018-06-30T10:36:14.490Z,15.47
2018-06-30T10:38:45.271Z,18.43
2018-06-30T10:41:17.386Z,15.50
2018-06-30T10:43:49.585Z,16.37
2018-06-30T10:46:21.755Z,14.30
2018-06-30T10:48:53.932Z,13.13
2018-06-30T10:51:26.208Z,12.63
2018-06-30T10:53:58.234Z,11.67
2018-06-30T10:56:29.349Z,11.57
2018-06-30T10:59:03.435Z,10.37
2018-06-30T11:01:36.278Z,11.00
2018-06-30T11:04:09.305Z,10.73
2018-06-30T11:06:41.879Z,9.47
2018-06-30T11:09:14.865Z,11.67
2018-06-30T11:11:47.902Z,10.97
2018-06-30T11:14:20.370Z,9.67
2018-06-30T11:16:52.406Z,10.10
2018-06-30T11:19:24.564Z,11.10
2018-06-30T11:21:56.860Z,18.10
2018-06-30T11:24:28.873Z,10.10
2018-06-30T11:27:01.788Z,10.47
2018-06-30T11:29:34.092Z,10.53
2018-06-30T11:32:06.856Z,10.47
2018-06-30T11:34:39.194Z,8.60
2018-06-30T11:37:11.311Z,9.40
2018-06-30T11:39:43.463Z,9.90
2018-06-30T11:42:15.570Z,8.80
2018-06-30T11:44:47.673Z,10.50
2018-06-30T11:47:19.843Z,11.83
2018-06-30T11:49:52.252Z,11.63
2018-06-30T11:52:24.554Z,10.10
2018-06-30T11:54:57.234Z,9.83
2018-06-30T11:57:29.426Z,10.00
2018-06-30T12:00:01.640Z,8.20
2018-06-30T12:02:33.905Z,10.87
2018-06-30T12:05:06.875Z,10.87
2018-06-30T12:07:39.052Z,10.23
2018-06-30T12:10:11.822Z,10.17
2018-06-30T12:12:44.064Z,9.67
2018-06-30T12:15:16.143Z,9.03
2018-06-30T12:17:49.023Z,9.93
2018-06-30T12:20:24.230Z,9.87
2018-06-30T12:22:57.161Z,9.03
2018-06-30T12:25:29.531Z,9.97
2018-06-30T12:28:01.737Z,9.53
2018-06-30T12:30:34.038Z,10.17
2018-06-30T12:33:08.703Z,9.53
2018-06-30T12:35:43.071Z,10.13
2018-06-30T12:38:15.303Z,8.03
2018-06-30T12:44:08.905Z,10.20
2018-06-30T12:46:44.113Z,9.30
2018-06-30T12:49:17.829Z,9.20
2018-06-30T12:52:14.250Z,8.03
2018-06-30T12:54:46.775Z,7.37
2018-06-30T12:57:19.256Z,8.60
2018-06-30T12:59:51.804Z,8.30
2018-06-30T13:02:24.249Z,8.60
2018-06-30T13:04:56.721Z,8.20
2018-06-30T13:07:29.119Z,8.07
2018-06-30T13:10:01.471Z,9.27
2018-06-30T13:12:33.995Z,8.73
2018-06-30T13:15:06.486Z,9.13
2018-06-30T13:21:03.090Z,8.70
2018-06-30T13:23:39.430Z,8.77
2018-06-30T13:29:51.401Z,8.53
2018-06-30T13:32:24.540Z,9.10
2018-06-30T13:34:57.386Z,9.50
2018-06-30T13:37:30.429Z,12.53
2018-06-30T13:40:03.315Z,11.23
2018-06-30T13:42:36.169Z,10.10
2018-06-30T13:45:11.783Z,9.53
2018-06-30T13:47:44.525Z,8.50
2018-06-30T13:50:17.279Z,9.43
2018-06-30T13:53:13.807Z,9.70
2018-06-30T13:55:46.121Z,8.20
2018-06-30T13:58:18.573Z,8.47
2018-06-30T14:00:50.830Z,8.80
2018-06-30T14:06:44.506Z,8.87
2018-06-30T14:09:16.747Z,8.57
2018-06-30T14:11:48.957Z,9.43
2018-06-30T14:14:19.969Z,8.57
2018-06-30T14:16:52.113Z,7.93
2018-06-30T14:19:24.350Z,9.33
2018-06-30T14:21:56.526Z,7.93
2018-06-30T14:24:28.721Z,8.00
2018-06-30T14:27:00.816Z,7.47
2018-06-30T14:29:33.140Z,10.70
2018-06-30T14:32:05.554Z,9.23
2018-06-30T14:34:37.816Z,7.97
2018-06-30T14:37:10.026Z,10.03
2018-06-30T14:39:42.095Z,9.33
2018-06-30T14:42:14.281Z,8.93
2018-06-30T14:44:46.398Z,9.57
2018-06-30T14:47:18.568Z,8.27
2018-06-30T14:49:50.777Z,8.70
2018-06-30T14:52:22.989Z,10.73
2018-06-30T14:54:55.405Z,10.83
2018-06-30T14:57:27.630Z,11.30
2018-06-30T14:59:59.790Z,8.63
2018-06-30T15:02:31.985Z,8.13
2018-06-30T15:08:25.506Z,8.93
2018-06-30T15:10:57.561Z,10.20
2018-06-30T15:13:29.618Z,10.30
2018-06-30T15:16:01.828Z,8.73
2018-06-30T15:18:33.960Z,8.73
2018-06-30T15:21:06.034Z,8.07
2018-06-30T15:26:59.699Z,9.97
2018-06-30T15:29:32.119Z,8.27
2018-06-30T15:32:04.546Z,8.30
2018-06-30T15:34:36.946Z,8.67
2018-06-30T15:37:09.353Z,9.03
2018-06-30T15:39:41.822Z,12.20
2018-06-30T15:42:14.500Z,8.77
2018-06-30T15:44:46.909Z,8.37
2018-06-30T15:47:19.308Z,10.50
2018-06-30T15:49:51.663Z,10.10
2018-06-30T15:52:22.692Z,8.80
2018-06-30T15:54:55.065Z,8.80
2018-06-30T15:57:27.384Z,9.83
2018-06-30T15:59:59.711Z,9.68
2018-06-30T16:02:32.154Z,9.90
2018-06-30T16:05:36.758Z,9.13
2018-06-30T16:08:09.644Z,8.35
2018-06-30T16:10:42.114Z,7.30
2018-06-30T16:13:14.632Z,7.73
2018-06-30T16:39:04.441Z,9.20
2018-06-30T16:44:09.520Z,7.80
2018-06-30T16:46:41.979Z,8.60
2018-06-30T16:49:14.375Z,6.97
2018-06-30T17:39:40.901Z,8.70
2018-06-30T17:55:23.927Z,8.10
2018-06-30T17:57:56.975Z,9.75
2018-06-30T18:30:15.158Z,8.60
2018-06-30T18:35:57.337Z,11.53
2018-06-30T18:41:19.695Z,8.43
2018-06-30T18:44:01.873Z,9.58
2018-06-30T18:57:10.938Z,11.05
2018-06-30T18:59:53.242Z,8.05
2018-06-30T19:26:22.451Z,9.30
2018-06-30T19:29:02.858Z,14.65
2018-06-30T19:31:35.365Z,11.22
2018-06-30T19:34:09.559Z,10.40
2018-06-30T19:39:14.565Z,10.08
2018-06-30T19:41:48.721Z,7.72
2018-06-30T19:44:21.009Z,7.92
2018-06-30T19:46:53.465Z,8.13
2018-06-30T19:49:26.588Z,8.90
2018-06-30T19:51:59.348Z,12.20
2018-06-30T20:18:11.437Z,8.80
2018-06-30T21:08:48.759Z,9.10
2018-06-30T21:19:02.633Z,7.33
2018-06-30T21:21:39.392Z,8.20
2018-06-30T21:26:42.383Z,8.80
2018-06-30T21:29:15.837Z,8.63
2018-06-30T21:31:48.157Z,8.10
2018-06-30T21:34:21.682Z,10.43
2018-06-30T21:36:54.694Z,8.55
2018-06-30T21:52:06.506Z,8.80
2018-06-30T21:59:40.235Z,8.55
2018-06-30T22:14:46.461Z,8.23
2018-06-30T22:17:18.924Z,7.42
2018-06-30T22:19:51.836Z,7.30
2018-06-30T22:22:24.384Z,7.67
2018-06-30T22:28:16.413Z,7.62
2018-06-30T22:30:49.277Z,7.00
2018-06-30T22:38:28.215Z,8.13
2018-06-30T22:48:44.798Z,10.23
2018-06-30T22:51:21.879Z,11.43
2018-06-30T22:53:55.415Z,8.70
2018-06-30T22:56:34.470Z,10.23
2018-06-30T22:59:12.511Z,7.40
2018-06-30T23:01:46.262Z,7.27
2018-06-30T23:04:19.213Z,8.48
2018-06-30T23:12:39.292Z,7.10
2018-06-30T23:15:11.960Z,6.60
2018-06-30T23:25:36.103Z,9.35
2018-06-30T23:30:39.890Z,6.60
2018-06-30T23:33:13.287Z,8.43
2018-06-30T23:35:48.280Z,7.57
2018-06-30T23:38:21.040Z,8.13
2018-06-30T23:40:53.579Z,8.23
2018-06-30T23:43:26.385Z,8.17
2018-06-30T23:45:59.029Z,8.17
2018-06-30T23:48:31.757Z,8.77
2018-06-30T23:51:04.452Z,8.50
2018-06-30T23:53:37.229Z,8.03
2018-06-30T23:56:10.036Z,8.10
2018-06-30T23:58:42.714Z,7.43
